EKAH/AAR METAR and TAF weather

Enter ICAO airport designator
Station Type Date Time Source
EKAH METAR 2021/09/20 04:50 UTC NOAA

EKAH 200450Z AUTO 00000KT 9999 BKN063/// 11/06 Q1024


Station Type Date Time Source
EKAH Decoded METAR 2021/09/20 04:50 UTC NOAA

Tirstrup, Denmark (EKAH) 56-18N 010-37E 25M
Sep 20, 2021 - 12:50 AM EDT / 2021.09.20 0450 UTC
Wind: Calm:0
Visibility: greater than 7 mile(s):0
Sky conditions: mostly cloudy
Temperature: 51 F (11 C)
Dew Point: 42 F (6 C)
Relative Humidity: 71%
Pressure (altimeter): 30.24 in. Hg (1024 hPa)
ob: EKAH 200450Z AUTO 00000KT 9999 BKN063/// 11/06 Q1024
cycle: 5

Station Type Date Time Source
EKAH TAF 2021/09/19 18:31 UTC NOAA

TAF EKAH 191705Z 1918/2018 06006KT 9999 BKN045

Example: see airport list